KONTKBUR

Guest
Details From KONT - Ontario Intl
To KBUR - BOB HOPE
Flight Number -
Tags generated
Created
Modified
Stats Distance 39 nm / 72 km
Max Altitude 3,300 ft / 1,006 m
Waypoints 3
Social Downloads 0
Likes 0
Share VATSIM

Download

Looking for another format? Having issues loading an existing format? Contact us
Advertisement - Login to hide

Notes

Basic altitude profile: - Ascent Rate: 2500ft/min - Ascent Speed: 250kts - Cruise Altitude: 35000ft - Cruise Speed: 420kts - Descent Rate: 1500ft/min - Descent Speed: 250kts Options: - Use NATs: no - Use PACOTS: no - Use low airways: yes - Use high airways: no

Route

KONT POM KBUR

ID Type Via Altitude Latitude Longitude Leg Dist Tot Dist Heading (true) Name
O KONT APT - 0 ft / 0 m 34.05592˚ -117.60085˚ - 0 nm - Ontario Intl
POM VOR - 3,300 ft / 1,006 m 34.07839˚ -117.78708˚ 9 nm 9 nm 278° / 278° POMONA VORTAC
O KBUR APT - 0 ft / 0 m 34.20048˚ -118.35877˚ 29 nm 38 nm 285° / 284° BOB HOPE

Altitude Profile

Advertisement - Login to hide

KONT

Details ICAO KONT (ONT)
Name Ontario Intl
Region United States
Timezone America/Los_Angeles (UTC-8.0)
Stats Elevation 944 ft / 288 m (AMSL)
Location 34.055917° -117.600853°
Runways 2
Magnetic Variation 11.862° E

METAR

KONT 151653Z VRB03KT 10SM FEW250 19/M11 A3016 RMK AO2 SLP206 T01891106

Decode

TAF

TAF KONT 151120Z 1512/1618 VRB06KT P6SM SKC

Decode

Departure Runways

ID Width Length Bearing (true) Bearing (mag) Surface Threshold Offset Overrun Length
08L 151 ft / 46 m 12,279 ft / 3,743 m 89.96° 78.10° Concrete 997 ft / 304 m 400 ft / 122 m
26L 151 ft / 46 m 10,269 ft / 3,130 m 269.97° 258.11° Concrete 0 ft / 0 m 400 ft / 122 m
26R 151 ft / 46 m 12,279 ft / 3,743 m 269.99° 258.13° Concrete 0 ft / 0 m 400 ft / 122 m
8R 151 ft / 46 m 10,269 ft / 3,130 m 89.95° 78.09° Concrete 0 ft / 0 m 400 ft / 122 m

KBUR

Details ICAO KBUR (BUR)
Name BOB HOPE
Region United States
Timezone America/Los_Angeles (UTC-8.0)
Stats Elevation 778 ft / 237 m (AMSL)
Location 34.200475° -118.358767°
Runways 2
Magnetic Variation 12.046° E

METAR

KBUR 151653Z 00000KT 10SM CLR 17/M09 A3016 RMK AO2 SLP201 T01721094

Decode

TAF

TAF KBUR 151158Z 1512/1612 VRB03KT P6SM SKC FM152200 17008KT P6SM SKC FM160400 VRB03KT P6SM SKC FM161000 VRB03KT P6SM BKN035

Decode

Destination Runways

ID Width Length Bearing (true) Bearing (mag) Surface Threshold Offset Overrun Length
08 151 ft / 46 m 5,835 ft / 1,779 m 90.92° 78.87° Asphalt 0 ft / 0 m 259 ft / 79 m
15 151 ft / 46 m 6,962 ft / 2,122 m 167.12° 155.07° Asphalt 909 ft / 277 m 0 ft / 0 m
26 151 ft / 46 m 5,835 ft / 1,779 m 270.93° 258.88° Asphalt 0 ft / 0 m 253 ft / 77 m
33 151 ft / 46 m 6,962 ft / 2,122 m 347.12° 335.07° Asphalt 351 ft / 107 m 0 ft / 0 m

Approach Navaids

Runway Type Ident Frequency Range Bearing (true) Bearing (mag) Slope Elevation
08 Localiser IBUR 109.50 MHz 18 nm / 33 km 90.84° 78.79° - 726 ft / 221 m (AMSL)
08 Glidescope IBUR 109.50 MHz 10 nm / 19 km 90.93° 78.88° 3.00° 720 ft / 219 m (AMSL)

Popular Alternatives